Candiota, Brazil
Current Conditions -  °F | °C
As of 12:25 AM on Monday 22 Dec 2014 (Local Time) from SBSM Reporting Station
Broken Clouds Broken Clouds  
Wind Chill: 68°   Ceiling: 3000
Heat Index: 68°   Visibility: 6mi
Dew Point: 63°   Wind: 5mph
Humidity: 83%   Direction: 180°S
Pressure: 29.77"   Gusts: NA
Location:  31.56°S, 53.67°W
Report Text: SBSM 220225Z 18004KT 9999 BKN030 20/17 Q1008
Loading
Personal Weather Stations






























Interactive Weather Map New forecast layout! Learn more

10-Day Weather Forecast

Advertisements
Track Severe Weather on mobile